Flight Track Log - Related Links

Times and Time Zones

All times are in EDT time to prevent confusion due to time zone crossing. See the CSQ503 flight status page for this flight to view local times or setup timezone preferences in your user account.

Time Position Orientation Groundspeed Altitude Reporting Facility
EDT Latitude Longitude Course Direction KTS MPH feet Rate Location/Type
Tue 10:14:07 AM 25.8003 -80.2744 144° Southeast 150 173 500  Level Miami Center
Tue 10:15:32 AM 25.7614 -80.2433 161° South 150 173 2,100 1,184 Climbing Miami Center
Tue 10:16:39 AM 25.7158 -80.2261 170° South 153 176 3,500 1,122 Climbing Miami Center
Tue 10:17:35 AM 25.6742 -80.2181 188° South 175 201 4,400 1,026 Climbing Miami Center
Tue 10:18:36 AM 25.6217 -80.2258 157° South 183 211 5,500 984 Climbing Miami Center
Tue 10:19:43 AM 25.5681 -80.2011 143° Southeast 177 204 6,500 885 Climbing Miami Center
Tue 10:20:38 AM 25.5311 -80.1703 139° Southeast 183 211 7,300 872 Climbing Miami Center
Tue 10:21:40 AM 25.4922 -80.1322 137° Southeast 183 211 8,200 783 Climbing Miami Center
Tue 10:22:10 AM 25.4739 -80.1133 148° Southeast 181 208 8,500 667 Climbing Miami Center
Tue 10:23:10 AM 25.4286 -80.0822 147° Southeast 186 214 9,200 750 Climbing Miami Center
Tue 10:24:10 AM 25.3853 -80.0514 148° Southeast 186 214 10,000 800 Climbing Miami Center
Tue 10:25:10 AM 25.3400 -80.0203 144° Southeast 191 220 10,800 700 Climbing Miami Center
Tue 10:26:10 AM 25.2989 -79.9869 148° Southeast 191 220 11,400 650 Climbing Miami Center
Tue 10:27:10 AM 25.2536 -79.9558 145° Southeast 186 214 12,100 600 Climbing Miami Center
Tue 10:28:10 AM 25.2106 -79.9228 149° Southeast 186 214 12,600 500 Climbing Miami Center
Tue 10:29:10 AM 25.1631 -79.8917 147° Southeast 191 220 13,100 600 Climbing Miami Center
Tue 10:30:10 AM 25.1200 -79.8608 146° Southeast 191 220 13,800 600 Climbing Miami Center
Tue 10:31:10 AM 25.0786 -79.8300 147° Southeast 191 220 14,300 500 Climbing Miami Center
Tue 10:32:10 AM 25.0356 -79.7992 147° Southeast 191 220 14,800 500 Climbing Miami Center
Tue 10:33:10 AM 24.9922 -79.7683 146° Southeast 186 214 15,300 500 Climbing Miami Center
Tue 10:34:10 AM 24.9511 -79.7375 150° Southeast 186 214 15,800 400 Climbing Miami Center
Tue 10:35:10 AM 24.9056 -79.7089 147° Southeast 191 220 16,100 150 Climbing Miami Center
Tue 10:36:10 AM 24.8561 -79.6733 148° Southeast 197 227 16,100 50 Level Miami Center
Tue 10:37:10 AM 24.8003 -79.6356 145° Southeast 211 243 16,200 300 Climbing Miami Center
Tue 10:38:10 AM 24.7508 -79.5978 150° Southeast 221 254 16,700 500 Climbing Miami Center
Tue 10:39:10 AM 24.6994 -79.5647 149° Southeast 221 254 17,200 500 Climbing Miami Center
Tue 10:40:10 AM 24.6497 -79.5317 142° Southeast 216 249 17,700 400 Climbing Miami Center
Tue 10:41:10 AM 24.6086 -79.4964 152° Southeast 203 234 18,000 350 Climbing Miami Center
Tue 10:42:10 AM 24.5611 -79.4681 147° Southeast 198 228 18,400 350 Climbing Miami Center
Tue 10:43:10 AM 24.5156 -79.4350 145° Southeast 198 228 18,700 300 Climbing Miami Center
Tue 10:44:10 AM 24.4703 -79.4000 148° Southeast 198 228 19,000 150 Climbing Miami Center
Tue 10:45:10 AM 24.4186 -79.3647 145° Southeast 209 241 19,000  Level Miami Center
Tue 10:46:10 AM 24.3692 -79.3272 159° South 209 241 19,000  Level Miami Center
Tue 10:47:10 AM 24.3069 -79.3008 168° South 219 252 19,000  Level Miami Center
Tue 10:48:10 AM 24.2425 -79.2858 172° South 232 267 19,000  Level Miami Center
Tue 10:49:10 AM 24.1736 -79.2756 167° South 245 282 19,000  Level Miami Center
Tue 10:50:10 AM 24.1050 -79.2583 172° South 245 282 19,000  Level Miami Center
Tue 10:51:10 AM 24.0403 -79.2478 151° Southeast 245 282 19,000  Level Miami Center
Tue 10:58:52 AM 23.6578 -79.0205 169° South  Level FlightAware Approximate
Tue 10:59:52 AM 23.5910 -79.0060 169° South  Level FlightAware Approximate
Tue 11:00:52 AM 23.5241 -78.9916 169° South  Level FlightAware Approximate
Tue 11:01:52 AM 23.4572 -78.9771 169° South  Level FlightAware Approximate
Tue 11:02:52 AM 23.3903 -78.9627 169° South  Level FlightAware Approximate
Tue 11:03:52 AM 23.3234 -78.9483 169° South  Level FlightAware Approximate
Tue 11:04:52 AM 23.2565 -78.9340 169° South  Level FlightAware Approximate
Tue 11:05:52 AM 23.1896 -78.9196 169° South  Level FlightAware Approximate
Tue 11:06:52 AM 23.1227 -78.9052 169° South  Level FlightAware Approximate
Tue 11:07:52 AM 23.0558 -78.8909 169° South  Level FlightAware Approximate
Tue 11:08:52 AM 22.9889 -78.8765 169° South  Level FlightAware Approximate
Tue 11:09:52 AM 22.9220 -78.8622 169° South  Level FlightAware Approximate
Tue 11:10:52 AM 22.8551 -78.8479 169° South  Level FlightAware Approximate
Tue 11:11:52 AM 22.7882 -78.8336 169° South  Level FlightAware Approximate
Tue 11:12:52 AM 22.7213 -78.8194 169° South  Level FlightAware Approximate
Tue 11:13:52 AM 22.6544 -78.8051 169° South  Level FlightAware Approximate
Tue 11:14:52 AM 22.5874 -78.7909 169° South  Level FlightAware Approximate
Tue 11:15:52 AM 22.5205 -78.7767 169° South  Level FlightAware Approximate
Tue 11:16:52 AM 22.4536 -78.7624 169° South  Level FlightAware Approximate
Tue 11:17:52 AM 22.3867 -78.7482 169° South  Level FlightAware Approximate
Tue 11:18:52 AM 22.3198 -78.7340 169° South  Level FlightAware Approximate
Tue 11:19:52 AM 22.2529 -78.7199 169° South  Level FlightAware Approximate
Tue 11:20:52 AM 22.1860 -78.7057 169° South  Level FlightAware Approximate
Tue 11:21:52 AM 22.1190 -78.6916 169° South  Level FlightAware Approximate
Tue 11:22:52 AM 22.0521 -78.6774 169° South  Level FlightAware Approximate
Tue 11:23:52 AM 21.9853 -78.6628 169° South  Level FlightAware Approximate
Tue 11:24:52 AM 21.9185 -78.6481 169° South  Level FlightAware Approximate
Tue 11:25:52 AM 21.8517 -78.6335 169° South  Level FlightAware Approximate
Tue 11:26:52 AM 21.7848 -78.6189 169° South  Level FlightAware Approximate
Tue 11:27:52 AM 21.7180 -78.6043 169° South  Level FlightAware Approximate
Tue 11:28:52 AM 21.6512 -78.5897 169° South  Level FlightAware Approximate
Tue 11:29:52 AM 21.5843 -78.5752 169° South  Level FlightAware Approximate
Tue 11:30:52 AM 21.5175 -78.5606 169° South  Level FlightAware Approximate
Tue 11:31:52 AM 21.4507 -78.5461 169° South  Level FlightAware Approximate
Tue 11:32:52 AM 21.3839 -78.5315 169° South  Level FlightAware Approximate
Tue 11:33:52 AM 21.3170 -78.5170 169° South  Level FlightAware Approximate
Tue 11:34:52 AM 21.2502 -78.5025 169° South  Level FlightAware Approximate
Tue 11:35:52 AM 21.1833 -78.4880 169° South  Level FlightAware Approximate
Tue 11:36:52 AM 21.1165 -78.4735 169° South  Level FlightAware Approximate
Tue 11:37:52 AM 21.0497 -78.4591 169° South  Level FlightAware Approximate
Tue 11:38:52 AM 20.9828 -78.4446 169° South  Level FlightAware Approximate
Tue 11:39:52 AM 20.9160 -78.4302 169° South  Level FlightAware Approximate
Tue 11:40:52 AM 20.8491 -78.4158 169° South  Level FlightAware Approximate
Tue 11:41:52 AM 20.7823 -78.4013 169° South  Level FlightAware Approximate
Tue 11:42:52 AM 20.7155 -78.3869 169° South  Level FlightAware Approximate
Tue 11:43:52 AM 20.6486 -78.3726 169° South  Level FlightAware Approximate
Tue 11:44:52 AM 20.5818 -78.3582 169° South  Level FlightAware Approximate
Tue 11:45:52 AM 20.5149 -78.3438 169° South  Level FlightAware Approximate
Tue 11:46:52 AM 20.4481 -78.3295 169° South  Level FlightAware Approximate
Tue 11:47:52 AM 20.3812 -78.3151 169° South  Level FlightAware Approximate
Tue 11:48:52 AM 20.3144 -78.3008 169° South  Level FlightAware Approximate
Tue 11:49:52 AM 20.2475 -78.2865 169° South  Level FlightAware Approximate
Tue 11:50:52 AM 20.1807 -78.2722 169° South  Level FlightAware Approximate
Tue 11:51:52 AM 20.1138 -78.2579 169° South  Level FlightAware Approximate
Tue 11:52:52 AM 20.0469 -78.2436 169° South  Level FlightAware Approximate
Tue 11:53:52 AM 19.9801 -78.2293 169° South  Level FlightAware Approximate
Tue 11:54:52 AM 19.9132 -78.2151 169° South  Level FlightAware Approximate
Tue 11:55:52 AM 19.8464 -78.2009 169° South  Level FlightAware Approximate
Tue 11:56:52 AM 19.7795 -78.1866 169° South  Level FlightAware Approximate
Tue 11:57:52 AM 19.7126 -78.1724 169° South  Level FlightAware Approximate
Tue 11:58:52 AM 19.6458 -78.1582 200° South  Level FlightAware Approximate
Tue 11:59:52 AM 19.5820 -78.1830 167° South  Level FlightAware Approximate
Tue 12:00:52 PM 19.5156 -78.1665 167° South  Level FlightAware Approximate
Tue 12:01:52 PM 19.4492 -78.1501 167° South  Level FlightAware Approximate
Tue 12:02:52 PM 19.3827 -78.1337 167° South  Level FlightAware Approximate
Tue 12:03:52 PM 19.3163 -78.1173 164° South  Level FlightAware Approximate
Tue 12:04:52 PM 19.2510 -78.0969 167° South  Level FlightAware Approximate
Tue 12:05:52 PM 19.1845 -78.0808 167° South  Level FlightAware Approximate
Tue 12:06:52 PM 19.1180 -78.0648 172° South  Level FlightAware Approximate
Tue 12:07:52 PM 19.0511 -78.0554 167° South  Level FlightAware Approximate
Tue 12:08:52 PM 18.9848 -78.0386 167° South  Level FlightAware Approximate
Tue 12:09:52 PM 18.9184 -78.0219 169° South  Level FlightAware Approximate
Tue 12:10:52 PM 18.8515 -78.0087 166° South  Level FlightAware Approximate
Tue 12:11:52 PM 18.7853 -77.9913 158° South  Level FlightAware Approximate
Tue 12:12:52 PM 18.7244 -77.9649 168° South  Level FlightAware Approximate
Tue 12:13:52 PM 18.6575 -77.9505 170° South  Level FlightAware Approximate
Tue 12:14:52 PM 18.5904 -77.9381 168° South  Level FlightAware Approximate
Tue 12:15:52 PM 18.5238 -77.9226 156° South  Level FlightAware Approximate
Tue 12:16:52 PM 18.4614 -77.8939 351° North  Level Estimated
Tue 12:17:52 PM 18.5000 -77.9000 286° West  Level FlightAware Approximate
Tue 12:18:52 PM 18.5192 -77.9690 106° East  Level Estimated
Tue 12:19:52 PM 18.5000 -77.9000 286° West  Level FlightAware Approximate
Tue 12:20:52 PM 18.5192 -77.9690 106° East  Level Estimated
Tue 12:21:52 PM 18.5000 -77.9000 286° West  Level FlightAware Approximate
Tue 12:22:52 PM 18.5192 -77.9690 286° West  Level Estimated

Login

Don't have an account? Register now (free) for customized features, flight alerts, and more!